Time;durP1;ratioP1;P1;durP2;ratioP2;P2;SDS_P1;SDS_P2;PMS_P1;PMS_P2;Temp;Humidity;BMP_temperature;BMP_pressure;BME280_temperature;BME280_humidity;BME280_pressure;Samples;Min_cycle;Max_cycle;Signal;HPM_P1;HPM_P2
2020/12/20 00:00:42;;;;;;;;;;;;;;;-144.28;100.00;59960.28;5069038;28;19971;-74
2020/12/20 00:03:09;;;;;;;;;;;;;;;-144.28;100.00;59960.28;5071439;28;19925;-74
2020/12/20 00:05:36;;;;;;;;;;;;;;;-144.28;100.00;59960.28;5066437;28;20389;-74
2020/12/20 00:08:02;;;;;;;;;;;;;;;-144.28;100.00;59960.28;5046023;28;20334;-75
2020/12/20 00:10:28;;;;;;;;;;;;;;;-144.28;100.00;59960.28;5069262;28;19967;-74
2020/12/20 00:12:55;;;;;;;;;;;;;;;-144.28;100.00;59960.28;5069982;28;20024;-76
2020/12/20 00:15:22;;;;;;;;;;;;;;;-144.28;100.00;59960.28;5070239;28;20285;-76
2020/12/20 00:17:49;;;;;;;;;;;;;;;-144.28;100.00;59960.28;5069375;28;19947;-76
2020/12/20 00:20:17;;;;;;;;;;;;;;;-144.28;100.00;59960.28;5070739;28;19931;-75
2020/12/20 00:22:43;;;;;;;;;;;;;;;-144.28;100.00;59960.28;5059955;28;20025;-77
2020/12/20 00:25:10;;;;;;;;;;;;;;;-144.28;100.00;59960.28;5050300;28;19925;-75
2020/12/20 00:27:36;;;;;;;;;;;;;;;-144.28;100.00;59960.28;5048211;28;20456;-75
2020/12/20 00:30:03;;;;;;;;;;;;;;;-144.28;100.00;59960.28;5050603;28;20337;-75
2020/12/20 00:32:30;;;;;;;;;;;;;;;-144.28;100.00;59960.28;5049051;28;19960;-75
2020/12/20 00:34:56;;;;;;;;;;;;;;;-144.28;100.00;59960.28;5050273;28;19986;-76
2020/12/20 00:37:23;;;;;;;;;;;;;;;-144.28;100.00;59960.28;5063552;28;19952;-75
2020/12/20 00:39:49;;;;;;;;;;;;;;;-144.28;100.00;59960.28;5052218;28;19995;-74
2020/12/20 00:42:15;;;;;;;;;;;;;;;-144.28;100.00;59960.28;5049993;28;20356;-76
2020/12/20 00:44:42;;;;;;;;;;;;;;;-144.28;100.00;59960.28;5048236;28;19972;-75
2020/12/20 00:47:08;;;;;;;;;;;;;;;-144.28;100.00;59960.28;5049968;28;20370;-77
2020/12/20 00:49:34;;;;;;;;;;;;;;;-144.28;100.00;59960.28;5047988;28;19925;-76
2020/12/20 00:52:01;;;;;;;;;;;;;;;-144.28;100.00;59960.28;5053003;28;19924;-77
2020/12/20 00:54:29;;;;;;;;;;;;;;;-144.28;100.00;59960.28;5064512;28;20378;-76
2020/12/20 00:56:55;;;;;;;;;;;;;;;-144.28;100.00;59960.28;5072432;28;19924;-77
2020/12/20 00:59:21;;;;;;;;;;;;;;;-144.28;100.00;59960.28;5069659;28;19964;-77
2020/12/20 01:01:48;;;;;;;;;;;;;;;-144.28;100.00;59960.28;5068344;28;19971;-75
2020/12/20 01:04:14;;;;;;;;;;;;;;;-144.28;100.00;59960.28;5069607;28;20349;-76
2020/12/20 01:06:40;;;;;;;;;;;;;;;-144.28;100.00;59960.28;5065018;28;19972;-74
2020/12/20 01:09:07;;;;;;;;;;;;;;;-144.28;100.00;59960.28;5069404;28;19993;-75
2020/12/20 01:11:35;;;;;;;;;;;;;;;-144.28;100.00;59960.28;5060940;28;19955;-75
2020/12/20 01:14:03;;;;;;;;;;;;;;;-144.28;100.00;59960.28;5069517;28;19931;-77
2020/12/20 01:16:30;;;;;;;;;;;;;;;-144.28;100.00;59960.28;5068259;28;19932;-76
2020/12/20 01:18:57;;;;;;;;;;;;;;;-144.28;100.00;59960.28;5070402;28;20021;-77
2020/12/20 01:21:23;;;;;;;;;;;;;;;-144.28;100.00;59960.28;5048691;28;19932;-76
2020/12/20 01:23:49;;;;;;;;;;;;;;;-144.28;100.00;59960.28;5047511;28;19967;-76
2020/12/20 01:26:15;;;;;;;;;;;;;;;-144.28;100.00;59960.28;5046921;28;20015;-77
2020/12/20 01:28:42;;;;;;;;;;;;;;;-144.28;100.00;59960.28;5047710;28;19952;-77
2020/12/20 01:31:12;;;;;;;;;;;;;;;-144.28;100.00;59960.28;5049334;28;20023;-74
2020/12/20 01:33:38;;;;;;;;;;;;;;;-144.28;100.00;59960.28;5047256;28;19955;-75
2020/12/20 01:36:05;;;;;;;;;;;;;;;-144.28;100.00;59960.28;5072508;28;20342;-75
2020/12/20 01:38:31;;;;;;;;;;;;;;;-144.28;100.00;59960.28;5064052;28;19956;-75
2020/12/20 01:40:57;;;;;;;;;;;;;;;-144.28;100.00;59960.28;5062829;28;19963;-75
2020/12/20 01:43:24;;;;;;;;;;;;;;;-144.28;100.00;59960.28;5068407;28;20320;-76
2020/12/20 01:45:51;;;;;;;;;;;;;;;-144.28;100.00;59960.28;5068401;28;19924;-76
2020/12/20 01:48:18;;;;;;;;;;;;;;;-144.28;100.00;59960.28;5068798;28;20485;-75
2020/12/20 01:50:44;;;;;;;;;;;;;;;-144.28;100.00;59960.28;5067524;28;20353;-75
2020/12/20 01:53:11;;;;;;;;;;;;;;;-144.28;100.00;59960.28;5060865;28;19971;-76
2020/12/20 01:55:39;;;;;;;;;;;;;;;-144.28;100.00;59960.28;5039711;28;19960;-76
2020/12/20 01:58:05;;;;;;;;;;;;;;;-144.28;100.00;59960.28;5049462;28;20051;-77
2020/12/20 02:00:31;;;;;;;;;;;;;;;-144.28;100.00;59960.28;5029508;28;19971;-77
2020/12/20 02:02:59;;;;;;;;;;;;;;;-144.28;100.00;59960.28;5048629;28;19925;-77
2020/12/20 02:05:25;;;;;;;;;;;;;;;-144.28;100.00;59960.28;5047663;28;20027;-75
2020/12/20 02:07:51;;;;;;;;;;;;;;;-144.28;100.00;59960.28;5048150;28;20648;-75
2020/12/20 02:10:18;;;;;;;;;;;;;;;-144.28;100.00;59960.28;5032287;28;20460;-77
2020/12/20 02:12:44;;;;;;;;;;;;;;;-144.28;100.00;59960.28;5042626;28;20019;-76
2020/12/20 02:15:10;;;;;;;;;;;;;;;-144.28;100.00;59960.28;5048802;28;19928;-76
2020/12/20 02:17:36;;;;;;;;;;;;;;;-144.28;100.00;59960.28;5046846;28;20297;-75
2020/12/20 02:20:04;;;;;;;;;;;;;;;-144.28;100.00;59960.28;5048605;28;19975;-75
2020/12/20 02:22:32;;;;;;;;;;;;;;;-144.28;100.00;59960.28;5047021;28;20020;-75
2020/12/20 02:24:59;;;;;;;;;;;;;;;-144.28;100.00;59960.28;5034155;28;19933;-76
2020/12/20 02:27:25;;;;;;;;;;;;;;;-144.28;100.00;59960.28;5031226;28;20375;-75
2020/12/20 02:29:51;;;;;;;;;;;;;;;-144.28;100.00;59960.28;5047604;28;19936;-75
2020/12/20 02:32:17;;;;;;;;;;;;;;;-144.28;100.00;59960.28;5048930;28;20022;-75
2020/12/20 02:34:43;;;;;;;;;;;;;;;-144.28;100.00;59960.28;5046930;28;19963;-75
2020/12/20 02:37:10;;;;;;;;;;;;;;;-144.28;100.00;59960.28;5048902;28;19979;-76
2020/12/20 02:39:39;;;;;;;;;;;;;;;-144.28;100.00;59960.28;5040469;28;20023;-75
2020/12/20 02:42:05;;;;;;;;;;;;;;;-144.28;100.00;59960.28;5029014;28;19957;-75
2020/12/20 02:44:32;;;;;;;;;;;;;;;-144.28;100.00;59960.28;5039422;28;19932;-76
2020/12/20 02:46:58;;;;;;;;;;;;;;;-144.28;100.00;59960.28;5048497;28;19964;-76
2020/12/20 02:49:24;;;;;;;;;;;;;;;-144.28;100.00;59960.28;5047698;28;19924;-76
2020/12/20 02:51:50;;;;;;;;;;;;;;;-144.28;100.00;59960.28;5047740;28;19972;-75
2020/12/20 02:54:16;;;;;;;;;;;;;;;-144.28;100.00;59960.28;5048129;28;19967;-76
2020/12/20 02:56:44;;;;;;;;;;;;;;;-144.28;100.00;59960.28;5043028;28;19931;-76
2020/12/20 02:59:10;;;;;;;;;;;;;;;-144.28;100.00;59960.28;5042780;28;19925;-76
2020/12/20 03:01:36;;;;;;;;;;;;;;;-144.28;100.00;59960.28;5047120;28;19925;-76
2020/12/20 03:04:03;;;;;;;;;;;;;;;-144.28;100.00;59960.28;5052262;28;19964;-76
2020/12/20 03:06:29;;;;;;;;;;;;;;;-144.28;100.00;59960.28;5050543;28;19975;-75
2020/12/20 03:08:55;;;;;;;;;;;;;;;-144.28;100.00;59960.28;5051219;28;19929;-76
2020/12/20 03:11:21;;;;;;;;;;;;;;;-144.28;100.00;59960.28;5048381;28;19964;-76
2020/12/20 03:13:48;;;;;;;;;;;;;;;-144.28;100.00;59960.28;5050560;28;19968;-76
2020/12/20 03:16:15;;;;;;;;;;;;;;;-144.28;100.00;59960.28;5032755;28;20015;-76
2020/12/20 03:18:41;;;;;;;;;;;;;;;-144.28;100.00;59960.28;5029911;28;19955;-76
2020/12/20 03:21:07;;;;;;;;;;;;;;;-144.28;100.00;59960.28;5067180;28;19967;-75
2020/12/20 03:23:33;;;;;;;;;;;;;;;-144.28;100.00;59960.28;5069580;28;19925;-75
2020/12/20 03:25:59;;;;;;;;;;;;;;;-144.28;100.00;59960.28;5062242;28;20012;-75
2020/12/20 03:28:26;;;;;;;;;;;;;;;-144.28;100.00;59960.28;5050233;28;19924;-75
2020/12/20 03:30:53;;;;;;;;;;;;;;;-144.28;100.00;59960.28;5045171;28;20016;-75
2020/12/20 03:33:19;;;;;;;;;;;;;;;-144.28;100.00;59960.28;5051668;28;19970;-75
2020/12/20 03:35:45;;;;;;;;;;;;;;;-144.28;100.00;59960.28;5053316;28;19978;-75
2020/12/20 03:38:12;;;;;;;;;;;;;;;-144.28;100.00;59960.28;5052824;28;19925;-74
2020/12/20 03:40:38;;;;;;;;;;;;;;;-144.28;100.00;59960.28;5050717;28;19924;-75
2020/12/20 03:43:04;;;;;;;;;;;;;;;-144.28;100.00;59960.28;5048222;28;19924;-75
2020/12/20 03:45:30;;;;;;;;;;;;;;;-144.28;100.00;59960.28;5045052;28;19932;-76
2020/12/20 03:47:58;;;;;;;;;;;;;;;-144.28;100.00;59960.28;5030966;28;19974;-75
2020/12/20 03:50:24;;;;;;;;;;;;;;;-144.28;100.00;59960.28;5031471;28;20446;-76
2020/12/20 03:52:50;;;;;;;;;;;;;;;-144.28;100.00;59960.28;5037274;28;19960;-76
2020/12/20 03:55:17;;;;;;;;;;;;;;;-144.28;100.00;59960.28;5050940;28;19925;-76
2020/12/20 03:57:43;;;;;;;;;;;;;;;-144.28;100.00;59960.28;5045576;28;19972;-76
2020/12/20 04:00:10;;;;;;;;;;;;;;;-144.28;100.00;59960.28;5051796;28;19924;-76
2020/12/20 04:02:36;;;;;;;;;;;;;;;-144.28;100.00;59960.28;5033741;28;19936;-76
2020/12/20 04:05:03;;;;;;;;;;;;;;;-144.28;100.00;59960.28;5041664;28;20263;-76
2020/12/20 04:07:29;;;;;;;;;;;;;;;-144.28;100.00;59960.28;5040155;28;19949;-76
2020/12/20 04:09:56;;;;;;;;;;;;;;;-144.28;100.00;59960.28;5038993;28;19967;-76
2020/12/20 04:12:22;;;;;;;;;;;;;;;-144.28;100.00;59960.28;5031269;28;19931;-76
2020/12/20 04:14:49;;;;;;;;;;;;;;;-144.28;100.00;59960.28;5049413;28;20003;-76
2020/12/20 04:17:15;;;;;;;;;;;;;;;-144.28;100.00;59960.28;5027390;28;20030;-76
2020/12/20 04:19:42;;;;;;;;;;;;;;;-144.28;100.00;59960.28;5049066;28;19928;-76
2020/12/20 04:22:09;;;;;;;;;;;;;;;-144.28;100.00;59960.28;5051207;28;20373;-76
2020/12/20 04:24:35;;;;;;;;;;;;;;;-144.28;100.00;59960.28;5048968;28;19952;-76
2020/12/20 04:27:02;;;;;;;;;;;;;;;-144.28;100.00;59960.28;5051038;28;20297;-75
2020/12/20 04:29:28;;;;;;;;;;;;;;;-144.28;100.00;59960.28;5028842;28;19925;-76
2020/12/20 04:31:54;;;;;;;;;;;;;;;-144.28;100.00;59960.28;5042630;28;20411;-75
2020/12/20 04:34:22;;;;;;;;;;;;;;;-144.28;100.00;59960.28;5049891;28;20019;-77
2020/12/20 04:36:48;;;;;;;;;;;;;;;-144.28;100.00;59960.28;5049714;28;19925;-76
2020/12/20 04:39:15;;;;;;;;;;;;;;;-144.28;100.00;59960.28;5050299;28;19983;-76
2020/12/20 04:41:42;;;;;;;;;;;;;;;-144.28;100.00;59960.28;5048385;28;20015;-75
2020/12/20 04:44:09;;;;;;;;;;;;;;;-144.28;100.00;59960.28;5046687;28;20384;-76
2020/12/20 04:46:37;;;;;;;;;;;;;;;-144.28;100.00;59960.28;5022802;28;22389;-75
2020/12/20 04:49:03;;;;;;;;;;;;;;;-144.28;100.00;59960.28;5035290;28;19968;-76
2020/12/20 04:51:29;;;;;;;;;;;;;;;-144.28;100.00;59960.28;5035113;28;20424;-76
2020/12/20 04:53:58;;;;;;;;;;;;;;;-144.28;100.00;59960.28;5049975;28;19929;-76
2020/12/20 04:56:27;;;;;;;;;;;;;;;-144.28;100.00;59960.28;5064288;28;20074;-76
2020/12/20 04:58:54;;;;;;;;;;;;;;;-144.28;100.00;59960.28;5064045;28;19939;-75
2020/12/20 05:01:21;;;;;;;;;;;;;;;-144.28;100.00;59960.28;5047554;28;19925;-76
2020/12/20 05:03:47;;;;;;;;;;;;;;;-144.28;100.00;59960.28;5064254;28;20316;-76
2020/12/20 05:06:14;;;;;;;;;;;;;;;-144.28;100.00;59960.28;5069158;28;19972;-75
2020/12/20 05:08:40;;;;;;;;;;;;;;;-144.28;100.00;59960.28;5067529;28;19924;-75
2020/12/20 05:11:07;;;;;;;;;;;;;;;-144.28;100.00;59960.28;5051843;28;20316;-75
2020/12/20 05:13:39;;;;;;;;;;;;;;;-144.28;100.00;59960.28;5064030;28;20395;-75
2020/12/20 05:16:06;;;;;;;;;;;;;;;-144.28;100.00;59960.28;5069427;28;19970;-75
2020/12/20 05:18:32;;;;;;;;;;;;;;;-144.28;100.00;59960.28;5053133;28;20048;-75
2020/12/20 05:20:58;;;;;;;;;;;;;;;-144.28;100.00;59960.28;5062721;28;19994;-75
2020/12/20 05:23:28;;;;;;;;;;;;;;;-144.28;100.00;59960.28;5080153;28;19924;-75
2020/12/20 05:26:04;;;;;;;;;;;;;;;-144.28;100.00;59960.28;5068419;28;20070;-75
2020/12/20 05:28:30;;;;;;;;;;;;;;;-144.28;100.00;59960.28;5067627;28;19967;-75
2020/12/20 05:31:06;;;;;;;;;;;;;;;-144.28;100.00;59960.28;5065940;28;20402;-75
2020/12/20 05:33:32;;;;;;;;;;;;;;;-144.28;100.00;59960.28;5060746;28;19947;-75
2020/12/20 05:35:59;;;;;;;;;;;;;;;-144.28;100.00;59960.28;5068459;28;19924;-76
2020/12/20 05:38:25;;;;;;;;;;;;;;;-144.28;100.00;59960.28;5067601;28;19924;-76
2020/12/20 05:40:51;;;;;;;;;;;;;;;-144.28;100.00;59960.28;5068176;28;20360;-75
2020/12/20 05:43:22;;;;;;;;;;;;;;;-144.28;100.00;59960.28;5069022;28;19960;-75
2020/12/20 05:45:48;;;;;;;;;;;;;;;-144.28;100.00;59960.28;5065039;28;19963;-75
2020/12/20 05:48:16;;;;;;;;;;;;;;;-144.28;100.00;59960.28;5057776;28;19925;-77
2020/12/20 05:50:49;;;;;;;;;;;;;;;-144.28;100.00;59960.28;5047371;28;19925;-75
2020/12/20 05:53:15;;;;;;;;;;;;;;;-144.28;100.00;59960.28;5049076;28;19932;-74
2020/12/20 05:55:41;;;;;;;;;;;;;;;-144.28;100.00;59960.28;5047062;28;19925;-75
2020/12/20 05:58:08;;;;;;;;;;;;;;;-144.28;100.00;59960.28;5049001;28;20372;-76
2020/12/20 06:00:35;;;;;;;;;;;;;;;-144.28;100.00;59960.28;5046108;28;19956;-76
2020/12/20 06:03:01;;;;;;;;;;;;;;;-144.28;100.00;59960.28;5066304;28;19981;-76
2020/12/20 06:05:33;;;;;;;;;;;;;;;-144.28;100.00;59960.28;5046005;28;20427;-76
2020/12/20 06:08:03;;;;;;;;;;;;;;;-144.28;100.00;59960.28;5048837;28;19925;-76
2020/12/20 06:10:33;;;;;;;;;;;;;;;-144.28;100.00;59960.28;5047398;28;20023;-75
2020/12/20 06:13:03;;;;;;;;;;;;;;;-144.28;100.00;59960.28;5048655;28;20424;-75
2020/12/20 06:15:32;;;;;;;;;;;;;;;-144.28;100.00;59960.28;5047192;28;19925;-75
2020/12/20 06:18:02;;;;;;;;;;;;;;;-144.28;100.00;59960.28;5058779;28;19976;-76
2020/12/20 06:20:30;;;;;;;;;;;;;;;-144.28;100.00;59960.28;5060281;28;20377;-76
2020/12/20 06:22:56;;;;;;;;;;;;;;;-144.28;100.00;59960.28;5068697;28;19983;-75
2020/12/20 06:25:23;;;;;;;;;;;;;;;-144.28;100.00;59960.28;5068294;28;20286;-75
2020/12/20 06:27:50;;;;;;;;;;;;;;;-144.28;100.00;59960.28;5067840;28;19929;-75
2020/12/20 06:30:16;;;;;;;;;;;;;;;-144.28;100.00;59960.28;5068789;28;19925;-75
2020/12/20 06:32:43;;;;;;;;;;;;;;;-144.28;100.00;59960.28;5063787;28;20011;-75
2020/12/20 06:35:11;;;;;;;;;;;;;;;-144.28;100.00;59960.28;5061118;28;20401;-76
2020/12/20 06:37:40;;;;;;;;;;;;;;;-144.28;100.00;59960.28;5069020;28;19928;-76
2020/12/20 06:40:07;;;;;;;;;;;;;;;-144.28;100.00;59960.28;5072439;28;20292;-75
2020/12/20 06:42:37;;;;;;;;;;;;;;;-144.28;100.00;59960.28;5070552;28;20370;-76
2020/12/20 06:45:17;;;;;;;;;;;;;;;-144.28;100.00;59960.28;5072659;28;19931;-76
2020/12/20 06:47:44;;;;;;;;;;;;;;;-144.28;100.00;59960.28;5057835;28;19924;-75
2020/12/20 06:50:10;;;;;;;;;;;;;;;-144.28;100.00;59960.28;5064352;28;19960;-75
2020/12/20 06:52:47;;;;;;;;;;;;;;;-144.28;100.00;59960.28;5050848;28;19940;-75
2020/12/20 06:55:14;;;;;;;;;;;;;;;-144.28;100.00;59960.28;5052333;28;19991;-75
2020/12/20 06:57:59;;;;;;;;;;;;;;;-144.28;100.00;59960.28;5050085;28;20151;-75
2020/12/20 07:00:38;;;;;;;;;;;;;;;-144.28;100.00;59960.28;5051014;28;19964;-74
2020/12/20 07:03:04;;;;;;;;;;;;;;;-144.28;100.00;59960.28;5063231;28;20392;-75
2020/12/20 07:05:39;;;;;;;;;;;;;;;-144.28;100.00;59960.28;5063971;28;19971;-76
2020/12/20 07:08:07;;;;;;;;;;;;;;;-144.28;100.00;59960.28;5033941;28;20076;-76
2020/12/20 07:10:40;;;;;;;;;;;;;;;-144.28;100.00;59960.28;5050086;28;19929;-76
2020/12/20 07:13:09;;;;;;;;;;;;;;;-144.28;100.00;59960.28;5051622;28;20012;-76
2020/12/20 07:15:45;;;;;;;;;;;;;;;-144.28;100.00;59960.28;5049981;28;19956;-75
2020/12/20 07:18:11;;;;;;;;;;;;;;;-144.28;100.00;59960.28;5063850;28;19931;-75
2020/12/20 07:20:37;;;;;;;;;;;;;;;-144.28;100.00;59960.28;5069831;28;19975;-75
2020/12/20 07:23:04;;;;;;;;;;;;;;;-144.28;100.00;59960.28;5064554;28;19931;-76
2020/12/20 07:25:31;;;;;;;;;;;;;;;-144.28;100.00;59960.28;5073800;28;20443;-75
2020/12/20 07:27:57;;;;;;;;;;;;;;;-144.28;100.00;59960.28;5071458;28;19979;-76
2020/12/20 07:30:24;;;;;;;;;;;;;;;-144.28;100.00;59960.28;5070530;28;20418;-75
2020/12/20 07:32:50;;;;;;;;;;;;;;;-144.28;100.00;59960.28;5066919;28;19967;-76
2020/12/20 07:35:16;;;;;;;;;;;;;;;-144.28;100.00;59960.28;5071371;28;20024;-76
2020/12/20 07:37:51;;;;;;;;;;;;;;;-144.28;100.00;59960.28;5062091;28;19932;-76
2020/12/20 07:40:18;;;;;;;;;;;;;;;-144.28;100.00;59960.28;5050947;28;20338;-75
2020/12/20 07:42:45;;;;;;;;;;;;;;;-144.28;100.00;59960.28;5052535;28;19983;-74
2020/12/20 07:45:12;;;;;;;;;;;;;;;-144.28;100.00;59960.28;5052944;28;20035;-75
2020/12/20 07:47:38;;;;;;;;;;;;;;;-144.28;100.00;59960.28;5058118;28;20396;-75
2020/12/20 07:50:05;;;;;;;;;;;;;;;-144.28;100.00;59960.28;5062559;28;20424;-76
2020/12/20 07:52:31;;;;;;;;;;;;;;;-144.28;100.00;59960.28;5063941;28;19963;-75
2020/12/20 07:54:58;;;;;;;;;;;;;;;-144.28;100.00;59960.28;5050156;28;19944;-75
2020/12/20 07:57:24;;;;;;;;;;;;;;;-144.28;100.00;59960.28;5050052;28;20399;-76
2020/12/20 08:00:01;;;;;;;;;;;;;;;-144.28;100.00;59960.28;5049873;28;19967;-75
2020/12/20 08:02:27;;;;;;;;;;;;;;;-144.28;100.00;59960.28;5058197;28;20430;-76
2020/12/20 08:05:03;;;;;;;;;;;;;;;-144.28;100.00;59960.28;5064484;28;20047;-76
2020/12/20 08:07:30;;;;;;;;;;;;;;;-144.28;100.00;59960.28;5062026;28;20381;-75
2020/12/20 08:09:56;;;;;;;;;;;;;;;-144.28;100.00;59960.28;5069641;28;20340;-75
2020/12/20 08:12:22;;;;;;;;;;;;;;;-144.28;100.00;59960.28;5070053;28;19924;-76
2020/12/20 08:14:59;;;;;;;;;;;;;;;-144.28;100.00;59960.28;5070208;28;19928;-75
2020/12/20 08:17:27;;;;;;;;;;;;;;;-144.28;100.00;59960.28;5069342;28;20353;-75
2020/12/20 08:19:54;;;;;;;;;;;;;;;-144.28;100.00;59960.28;5070127;28;20405;-75
2020/12/20 08:22:22;;;;;;;;;;;;;;;-144.28;100.00;59960.28;5050576;28;19924;-76
2020/12/20 08:24:49;;;;;;;;;;;;;;;-144.28;100.00;59960.28;5047302;28;19994;-76
2020/12/20 08:27:16;;;;;;;;;;;;;;;-144.28;100.00;59960.28;5050134;28;19967;-76
2020/12/20 08:29:43;;;;;;;;;;;;;;;-144.28;100.00;59960.28;5030875;28;19926;-75
2020/12/20 08:32:14;;;;;;;;;;;;;;;-144.28;100.00;59960.28;5051161;28;19924;-76
2020/12/20 08:34:41;;;;;;;;;;;;;;;-144.28;100.00;59960.28;5048558;28;19924;-76
2020/12/20 08:37:12;;;;;;;;;;;;;;;-144.28;100.00;59960.28;5054222;28;19963;-75
2020/12/20 08:39:38;;;;;;;;;;;;;;;-144.28;100.00;59960.28;5062018;28;20326;-76
2020/12/20 08:42:05;;;;;;;;;;;;;;;-144.28;100.00;59960.28;5070153;28;19925;-76
2020/12/20 08:44:31;;;;;;;;;;;;;;;-144.28;100.00;59960.28;5068311;28;20018;-76
2020/12/20 08:47:08;;;;;;;;;;;;;;;-144.28;100.00;59960.28;5070165;28;19960;-76
2020/12/20 08:49:34;;;;;;;;;;;;;;;-144.28;100.00;59960.28;5068020;28;19968;-76
2020/12/20 08:52:08;;;;;;;;;;;;;;;-144.28;100.00;59960.28;5067650;28;19924;-76
2020/12/20 08:54:35;;;;;;;;;;;;;;;-144.28;100.00;59960.28;5061205;28;19924;-76
2020/12/20 08:57:03;;;;;;;;;;;;;;;-144.28;100.00;59960.28;5069652;28;19952;-74
2020/12/20 08:59:34;;;;;;;;;;;;;;;-144.28;100.00;59960.28;5067712;28;19972;-76
2020/12/20 09:02:00;;;;;;;;;;;;;;;-144.28;100.00;59960.28;5067344;28;19925;-76
2020/12/20 09:04:28;;;;;;;;;;;;;;;-144.28;100.00;59960.28;5068011;28;19968;-75
2020/12/20 09:07:15;;;;;;;;;;;;;;;-144.28;100.00;59960.28;5069410;28;19924;-74
2020/12/20 09:09:42;;;;;;;;;;;;;;;-144.28;100.00;59960.28;5041830;28;19925;-75
2020/12/20 09:12:18;;;;;;;;;;;;;;;-144.28;100.00;59960.28;5049443;28;19956;-75
2020/12/20 09:15:01;;;;;;;;;;;;;;;-144.28;100.00;59960.28;5047772;28;19972;-75
2020/12/20 09:17:30;;;;;;;;;;;;;;;-144.28;100.00;59960.28;5068722;28;19960;-75
2020/12/20 09:19:57;;;;;;;;;;;;;;;-144.28;100.00;59960.28;5069083;28;19978;-75
2020/12/20 09:22:37;;;;;;;;;;;;;;;-144.28;100.00;59960.28;5059305;28;20055;-75
2020/12/20 09:25:04;;;;;;;;;;;;;;;-144.28;100.00;59960.28;5058292;28;19963;-75
2020/12/20 09:27:31;;;;;;;;;;;;;;;-144.28;100.00;59960.28;5033179;28;19972;-74
2020/12/20 09:29:59;;;;;;;;;;;;;;;-144.28;100.00;59960.28;5068784;28;19924;-75
2020/12/20 09:32:25;;;;;;;;;;;;;;;-144.28;100.00;59960.28;5068360;28;19925;-75
2020/12/20 09:34:52;;;;;;;;;;;;;;;-144.28;100.00;59960.28;5068841;28;20359;-74
2020/12/20 09:37:18;;;;;;;;;;;;;;;-144.28;100.00;59960.28;5069154;28;20023;-75
2020/12/20 09:39:58;;;;;;;;;;;;;;;-144.28;100.00;59960.28;5034508;28;20049;-75
2020/12/20 09:42:25;;;;;;;;;;;;;;;-144.28;100.00;59960.28;5068385;28;19924;-75
2020/12/20 09:44:51;;;;;;;;;;;;;;;-144.28;100.00;59960.28;5067985;28;19951;-74
2020/12/20 09:47:18;;;;;;;;;;;;;;;-144.28;100.00;59960.28;5069079;28;19928;-75
2020/12/20 09:49:44;;;;;;;;;;;;;;;-144.28;100.00;59960.28;5067619;28;19967;-75
2020/12/20 09:52:10;;;;;;;;;;;;;;;-144.28;100.00;59960.28;5068754;28;19964;-75
2020/12/20 09:54:36;;;;;;;;;;;;;;;-144.28;100.00;59960.28;5065695;28;19983;-77
2020/12/20 09:57:03;;;;;;;;;;;;;;;-144.28;100.00;59960.28;5056619;28;19928;-74
2020/12/20 09:59:30;;;;;;;;;;;;;;;-144.28;100.00;59960.28;5067821;28;19924;-74
2020/12/20 10:01:56;;;;;;;;;;;;;;;-144.28;100.00;59960.28;5068585;28;20035;-75
2020/12/20 10:04:22;;;;;;;;;;;;;;;-144.28;100.00;59960.28;5068621;28;19979;-74
2020/12/20 10:06:51;;;;;;;;;;;;;;;-144.28;100.00;59960.28;5067662;28;19928;-76
2020/12/20 10:09:17;;;;;;;;;;;;;;;-144.28;100.00;59960.28;5065901;28;19925;-76
2020/12/20 10:11:43;;;;;;;;;;;;;;;-144.28;100.00;59960.28;5062194;28;19968;-75
2020/12/20 10:14:09;;;;;;;;;;;;;;;-144.28;100.00;59960.28;5073225;28;19975;-75
2020/12/20 10:16:36;;;;;;;;;;;;;;;-144.28;100.00;59960.28;5070935;28;19925;-75
2020/12/20 10:19:05;;;;;;;;;;;;;;;-144.28;100.00;59960.28;5073187;28;19972;-74
2020/12/20 10:21:31;;;;;;;;;;;;;;;-144.28;100.00;59960.28;5071508;28;19973;-75
2020/12/20 10:23:57;;;;;;;;;;;;;;;-144.28;100.00;59960.28;5072917;28;20385;-74
2020/12/20 10:26:23;;;;;;;;;;;;;;;-144.28;100.00;59960.28;5050251;28;20018;-74
2020/12/20 10:28:50;;;;;;;;;;;;;;;-144.28;100.00;59960.28;5064933;28;20432;-74
2020/12/20 10:31:17;;;;;;;;;;;;;;;-144.28;100.00;59960.28;5071924;28;20022;-74
2020/12/20 10:33:45;;;;;;;;;;;;;;;-144.28;100.00;59960.28;5070453;28;20483;-76
2020/12/20 10:36:12;;;;;;;;;;;;;;;-144.28;100.00;59960.28;5072610;28;19924;-75
2020/12/20 10:38:39;;;;;;;;;;;;;;;-144.28;100.00;59960.28;5070384;28;20015;-75
2020/12/20 10:41:05;;;;;;;;;;;;;;;-144.28;100.00;59960.28;5065123;28;20004;-75
2020/12/20 10:43:31;;;;;;;;;;;;;;;-144.28;100.00;59960.28;5054749;28;20020;-75
2020/12/20 10:45:58;;;;;;;;;;;;;;;-144.28;100.00;59960.28;5072346;28;19924;-75
2020/12/20 10:48:24;;;;;;;;;;;;;;;-144.28;100.00;59960.28;5071620;28;20009;-74
2020/12/20 10:50:51;;;;;;;;;;;;;;;-144.28;100.00;59960.28;5071453;28;19932;-74
2020/12/20 10:53:17;;;;;;;;;;;;;;;-144.28;100.00;59960.28;5072041;28;19968;-75
2020/12/20 10:55:43;;;;;;;;;;;;;;;-144.28;100.00;59960.28;5071010;28;19924;-75
2020/12/20 10:58:09;;;;;;;;;;;;;;;-144.28;100.00;59960.28;5061479;28;20021;-74
2020/12/20 11:00:36;;;;;;;;;;;;;;;-144.28;100.00;59960.28;5073803;28;19953;-75
2020/12/20 11:03:02;;;;;;;;;;;;;;;-144.28;100.00;59960.28;5077627;28;19931;-75
2020/12/20 11:05:28;;;;;;;;;;;;;;;-144.28;100.00;59960.28;5076550;28;19936;-76
2020/12/20 11:07:55;;;;;;;;;;;;;;;-144.28;100.00;59960.28;5077896;28;19924;-75
2020/12/20 11:10:21;;;;;;;;;;;;;;;-144.28;100.00;59960.28;5071809;28;19956;-74
2020/12/20 11:12:48;;;;;;;;;;;;;;;-144.28;100.00;59960.28;5057439;28;20013;-75
2020/12/20 11:15:14;;;;;;;;;;;;;;;-144.28;100.00;59960.28;5048530;28;19960;-77
2020/12/20 11:17:40;;;;;;;;;;;;;;;-144.28;100.00;59960.28;5049993;28;19925;-75
2020/12/20 11:20:06;;;;;;;;;;;;;;;-144.28;100.00;59960.28;5052218;28;20023;-75
2020/12/20 11:22:33;;;;;;;;;;;;;;;-144.28;100.00;59960.28;5051060;28;19924;-75
2020/12/20 11:25:00;;;;;;;;;;;;;;;-144.28;100.00;59960.28;5053175;28;19928;-75
2020/12/20 11:27:27;;;;;;;;;;;;;;;-144.28;100.00;59960.28;5066797;28;20423;-75
2020/12/20 11:29:53;;;;;;;;;;;;;;;-144.28;100.00;59960.28;5062382;28;20394;-74
2020/12/20 11:32:20;;;;;;;;;;;;;;;-144.28;100.00;59960.28;5050915;28;20415;-74
2020/12/20 11:34:46;;;;;;;;;;;;;;;-144.28;100.00;59960.28;5050093;28;19963;-76
2020/12/20 11:37:12;;;;;;;;;;;;;;;-144.28;100.00;59960.28;5051572;28;19971;-76
2020/12/20 11:39:38;;;;;;;;;;;;;;;-144.28;100.00;59960.28;5049558;28;19992;-76
2020/12/20 11:42:05;;;;;;;;;;;;;;;-144.28;100.00;59960.28;5060956;28;19954;-76
2020/12/20 11:44:32;;;;;;;;;;;;;;;-144.28;100.00;59960.28;5061444;28;20027;-76
2020/12/20 11:46:58;;;;;;;;;;;;;;;-144.28;100.00;59960.28;5070436;28;20015;-75
2020/12/20 11:49:24;;;;;;;;;;;;;;;-144.28;100.00;59960.28;5070371;28;19955;-75
2020/12/20 11:51:50;;;;;;;;;;;;;;;-144.28;100.00;59960.28;5070669;28;20599;-75
2020/12/20 11:54:17;;;;;;;;;;;;;;;-144.28;100.00;59960.28;5072608;28;20026;-75
2020/12/20 11:56:43;;;;;;;;;;;;;;;-144.28;100.00;59960.28;5069390;28;19924;-75
2020/12/20 11:59:10;;;;;;;;;;;;;;;-144.28;100.00;59960.28;5063789;28;19925;-74
2020/12/20 12:01:36;;;;;;;;;;;;;;;-144.28;100.00;59960.28;5054167;28;20637;-77
2020/12/20 12:04:03;;;;;;;;;;;;;;;-144.28;100.00;59960.28;5070996;28;19924;-75
2020/12/20 12:06:29;;;;;;;;;;;;;;;-144.28;100.00;59960.28;5069775;28;19967;-76
2020/12/20 12:08:55;;;;;;;;;;;;;;;-144.28;100.00;59960.28;5070412;28;19999;-75
2020/12/20 12:11:22;;;;;;;;;;;;;;;-144.28;100.00;59960.28;5070160;28;19924;-74
2020/12/20 12:13:49;;;;;;;;;;;;;;;-144.28;100.00;59960.28;5065947;28;19991;-75
2020/12/20 12:16:17;;;;;;;;;;;;;;;-144.28;100.00;59960.28;5052248;28;19990;-76
2020/12/20 12:18:43;;;;;;;;;;;;;;;-144.28;100.00;59960.28;5068932;28;19924;-76